Rorichmoor — V2BV7 — position and weather

sailwx.info

Track history (hours):
 
Tides and Currents Weather Stations Pressure Air Temp Water Temp Dewpoint Dewpoint Depression Visibility Wind Speed Wind Dir Waves Ship Positions

Rorichmoor

Last reported at 2016-Jul-28 21:11 UTC. Time now 2016-Jul-29 02:10 UTC.
Position N 39°52' E 001°26'.

Length 80 m; draft 4.2 m.

Type: Ship (hazmat cat B). MMSI: 304938000.

Date/timePositionNaut miles runAvg speedWind from/ knotsBaromVisibWave heightAir tempDewpointWater temp
2016-Jul-28 21:11N 39°52' E 001°26'6 9.8
2016-Jul-28 20:33N 39°57' E 001°31'10 9.8
2016-Jul-28 19:33N 40°04' E 001°39'1010.0
2016-Jul-28 18:33N 40°13' E 001°46'1010.0
2016-Jul-28 17:32N 40°21' E 001°54'10 9.9
2016-Jul-28 16:32N 40°29' E 002°01'10 9.8
2016-Jul-28 15:33N 40°37' E 002°09'10 9.6
2016-Jul-28 14:33N 40°45' E 002°16'  
2016-Jul-22 00:20N 42°01' E 003°21'1010.0
2016-Jul-21 23:23N 41°51' E 003°19'2210.4
2016-Jul-21 21:14N 41°33' E 003°03'710.4
2016-Jul-21 20:33N 41°27' E 002°57'1010.2
2016-Jul-21 19:33N 41°19' E 002°49'10 9.6
2016-Jul-21 18:33N 41°11' E 002°42'1110.2
2016-Jul-21 17:31N 41°02' E 002°34'1010.5
2016-Jul-21 16:31N 40°53' E 002°26'1010.6
2016-Jul-21 15:32N 40°45' E 002°18'1410.6
2016-Jul-21 14:13N 40°33' E 002°08'710.6
2016-Jul-21 13:33N 40°28' E 002°03'1110.8
2016-Jul-21 12:31N 40°19' E 001°54'1310.6
2016-Jul-21 11:18N 40°08' E 001°44'910.7
2016-Jul-21 10:30N 40°01' E 001°38'10210.3
2016-Jul-21 00:33N 38°36' E 000°23'5610.8
2016-Jul-20 19:25N 37°50' W 000°16'910.3
2016-Jul-20 18:33N 37°43' W 000°22'1010.3
2016-Jul-20 17:33N 37°34' W 000°30'1010.5
2016-Jul-20 16:33N 37°27' W 000°39'240 9.9
2016-Jul-19 16:22N 35°58' W 005°18'  
Track history (hours):
 
Tides and Currents Weather Stations Pressure Air Temp Water Temp Dewpoint Dewpoint Depression Visibility Wind Speed Wind Dir Waves Ship Positions

Rorichmoor

Last reported at 2016-Jul-28 21:11 UTC. Time now 2016-Jul-29 02:10 UTC.
Position N 39°52' E 001°26'.

Length 80 m; draft 4.2 m.

Type: Ship (hazmat cat B). MMSI: 304938000.

Date/timePositionNaut miles runAvg speedWind from/ knotsBaromVisibWave heightAir tempDewpointWater temp
2016-Jul-28 21:11N 39°52' E 001°26'6 9.8
2016-Jul-28 20:33N 39°57' E 001°31'10 9.8
2016-Jul-28 19:33N 40°04' E 001°39'1010.0
2016-Jul-28 18:33N 40°13' E 001°46'1010.0
2016-Jul-28 17:32N 40°21' E 001°54'10 9.9
2016-Jul-28 16:32N 40°29' E 002°01'10 9.8
2016-Jul-28 15:33N 40°37' E 002°09'10 9.6
2016-Jul-28 14:33N 40°45' E 002°16'  
2016-Jul-22 00:20N 42°01' E 003°21'1010.0
2016-Jul-21 23:23N 41°51' E 003°19'2210.4
2016-Jul-21 21:14N 41°33' E 003°03'710.4
2016-Jul-21 20:33N 41°27' E 002°57'1010.2
2016-Jul-21 19:33N 41°19' E 002°49'10 9.6
2016-Jul-21 18:33N 41°11' E 002°42'1110.2
2016-Jul-21 17:31N 41°02' E 002°34'1010.5
2016-Jul-21 16:31N 40°53' E 002°26'1010.6
2016-Jul-21 15:32N 40°45' E 002°18'1410.6
2016-Jul-21 14:13N 40°33' E 002°08'710.6
2016-Jul-21 13:33N 40°28' E 002°03'1110.8
2016-Jul-21 12:31N 40°19' E 001°54'1310.6
2016-Jul-21 11:18N 40°08' E 001°44'910.7
2016-Jul-21 10:30N 40°01' E 001°38'10210.3
2016-Jul-21 00:33N 38°36' E 000°23'5610.8
2016-Jul-20 19:25N 37°50' W 000°16'910.3
2016-Jul-20 18:33N 37°43' W 000°22'1010.3
2016-Jul-20 17:33N 37°34' W 000°30'1010.5
2016-Jul-20 16:33N 37°27' W 000°39'240 9.9
2016-Jul-19 16:22N 35°58' W 005°18'  

Dump ship's entire track history